sensor_id;sensor_type;location;lat;lon;timestamp;P1;P2;P0
57884;PMS5003;43703;51.060;-0.086;2023-03-14T00:00:24;11;8;
57884;PMS5003;43703;51.060;-0.086;2023-03-14T00:02:51;11;9;
57884;PMS5003;43703;51.060;-0.086;2023-03-14T00:05:15;10;6;
57884;PMS5003;43703;51.060;-0.086;2023-03-14T00:07:40;7;7;
57884;PMS5003;43703;51.060;-0.086;2023-03-14T00:10:08;8;6;
57884;PMS5003;43703;51.060;-0.086;2023-03-14T00:12:31;11;5;
57884;PMS5003;43703;51.060;-0.086;2023-03-14T00:14:56;7;5;
57884;PMS5003;43703;51.060;-0.086;2023-03-14T00:17:21;6;5;
57884;PMS5003;43703;51.060;-0.086;2023-03-14T00:19:47;9;5;
57884;PMS5003;43703;51.060;-0.086;2023-03-14T00:22:17;7;4;
57884;PMS5003;43703;51.060;-0.086;2023-03-14T00:24:37;13;9;
57884;PMS5003;43703;51.060;-0.086;2023-03-14T00:27:02;8;6;
57884;PMS5003;43703;51.060;-0.086;2023-03-14T00:29:28;9;5;
57884;PMS5003;43703;51.060;-0.086;2023-03-14T00:31:53;11;5;
57884;PMS5003;43703;51.060;-0.086;2023-03-14T00:34:18;3;3;
57884;PMS5003;43703;51.060;-0.086;2023-03-14T00:36:44;4;4;
57884;PMS5003;43703;51.060;-0.086;2023-03-14T00:39:08;8;5;
57884;PMS5003;43703;51.060;-0.086;2023-03-14T00:41:33;6;4;
57884;PMS5003;43703;51.060;-0.086;2023-03-14T00:43:59;9;4;
57884;PMS5003;43703;51.060;-0.086;2023-03-14T00:46:25;5;5;
57884;PMS5003;43703;51.060;-0.086;2023-03-14T00:48:50;9;9;
57884;PMS5003;43703;51.060;-0.086;2023-03-14T00:51:16;6;6;
57884;PMS5003;43703;51.060;-0.086;2023-03-14T00:53:41;7;7;
57884;PMS5003;43703;51.060;-0.086;2023-03-14T00:56:08;5;5;
57884;PMS5003;43703;51.060;-0.086;2023-03-14T00:58:32;4;3;
57884;PMS5003;43703;51.060;-0.086;2023-03-14T01:00:57;9;5;
57884;PMS5003;43703;51.060;-0.086;2023-03-14T01:03:22;1;1;
57884;PMS5003;43703;51.060;-0.086;2023-03-14T01:05:47;4;4;
57884;PMS5003;43703;51.060;-0.086;2023-03-14T01:08:12;2;2;
57884;PMS5003;43703;51.060;-0.086;2023-03-14T01:10:38;5;4;
57884;PMS5003;43703;51.060;-0.086;2023-03-14T01:13:02;5;5;
57884;PMS5003;43703;51.060;-0.086;2023-03-14T01:15:27;3;3;
57884;PMS5003;43703;51.060;-0.086;2023-03-14T01:17:53;6;3;
57884;PMS5003;43703;51.060;-0.086;2023-03-14T01:20:18;1;1;
57884;PMS5003;43703;51.060;-0.086;2023-03-14T01:22:43;3;3;
57884;PMS5003;43703;51.060;-0.086;2023-03-14T01:25:08;4;4;
57884;PMS5003;43703;51.060;-0.086;2023-03-14T01:27:33;3;3;
57884;PMS5003;43703;51.060;-0.086;2023-03-14T01:29:58;2;1;
57884;PMS5003;43703;51.060;-0.086;2023-03-14T01:32:23;1;1;
57884;PMS5003;43703;51.060;-0.086;2023-03-14T01:34:48;2;2;
57884;PMS5003;43703;51.060;-0.086;2023-03-14T01:37:13;1;1;
57884;PMS5003;43703;51.060;-0.086;2023-03-14T01:39:38;2;1;
57884;PMS5003;43703;51.060;-0.086;2023-03-14T01:42:03;2;2;
57884;PMS5003;43703;51.060;-0.086;2023-03-14T01:44:28;2;2;
57884;PMS5003;43703;51.060;-0.086;2023-03-14T01:46:53;3;2;
57884;PMS5003;43703;51.060;-0.086;2023-03-14T01:49:20;3;2;
57884;PMS5003;43703;51.060;-0.086;2023-03-14T01:51:44;1;1;
57884;PMS5003;43703;51.060;-0.086;2023-03-14T01:54:10;0;0;
57884;PMS5003;43703;51.060;-0.086;2023-03-14T01:56:33;0;0;
57884;PMS5003;43703;51.060;-0.086;2023-03-14T01:58:58;0;0;
57884;PMS5003;43703;51.060;-0.086;2023-03-14T02:01:24;1;1;
57884;PMS5003;43703;51.060;-0.086;2023-03-14T02:03:49;0;0;
57884;PMS5003;43703;51.060;-0.086;2023-03-14T02:06:13;1;1;
57884;PMS5003;43703;51.060;-0.086;2023-03-14T02:08:38;0;0;
57884;PMS5003;43703;51.060;-0.086;2023-03-14T02:11:03;0;0;
57884;PMS5003;43703;51.060;-0.086;2023-03-14T02:13:28;1;1;
57884;PMS5003;43703;51.060;-0.086;2023-03-14T02:15:53;1;1;
57884;PMS5003;43703;51.060;-0.086;2023-03-14T02:18:18;0;0;
57884;PMS5003;43703;51.060;-0.086;2023-03-14T02:20:45;4;4;
57884;PMS5003;43703;51.060;-0.086;2023-03-14T02:23:09;0;0;
57884;PMS5003;43703;51.060;-0.086;2023-03-14T02:25:38;1;1;
57884;PMS5003;43703;51.060;-0.086;2023-03-14T02:27:59;1;1;
57884;PMS5003;43703;51.060;-0.086;2023-03-14T02:30:25;1;0;
57884;PMS5003;43703;51.060;-0.086;2023-03-14T02:32:51;2;1;
57884;PMS5003;43703;51.060;-0.086;2023-03-14T02:35:15;1;1;
57884;PMS5003;43703;51.060;-0.086;2023-03-14T02:37:41;3;3;
57884;PMS5003;43703;51.060;-0.086;2023-03-14T02:40:04;2;2;
57884;PMS5003;43703;51.060;-0.086;2023-03-14T02:42:29;2;2;
57884;PMS5003;43703;51.060;-0.086;2023-03-14T02:44:55;2;2;
57884;PMS5003;43703;51.060;-0.086;2023-03-14T02:47:20;3;2;
57884;PMS5003;43703;51.060;-0.086;2023-03-14T02:49:44;1;1;
57884;PMS5003;43703;51.060;-0.086;2023-03-14T02:52:09;2;1;
57884;PMS5003;43703;51.060;-0.086;2023-03-14T02:54:34;2;2;
57884;PMS5003;43703;51.060;-0.086;2023-03-14T02:56:59;2;2;
57884;PMS5003;43703;51.060;-0.086;2023-03-14T02:59:24;0;0;
57884;PMS5003;43703;51.060;-0.086;2023-03-14T03:01:50;2;2;
57884;PMS5003;43703;51.060;-0.086;2023-03-14T03:04:14;1;1;
57884;PMS5003;43703;51.060;-0.086;2023-03-14T03:06:40;1;1;
57884;PMS5003;43703;51.060;-0.086;2023-03-14T03:09:05;2;2;
57884;PMS5003;43703;51.060;-0.086;2023-03-14T03:11:30;2;2;
57884;PMS5003;43703;51.060;-0.086;2023-03-14T03:13:55;1;1;
57884;PMS5003;43703;51.060;-0.086;2023-03-14T03:16:20;1;1;
57884;PMS5003;43703;51.060;-0.086;2023-03-14T03:18:45;2;2;
57884;PMS5003;43703;51.060;-0.086;2023-03-14T03:21:10;0;0;
57884;PMS5003;43703;51.060;-0.086;2023-03-14T03:23:35;0;0;
57884;PMS5003;43703;51.060;-0.086;2023-03-14T03:26:01;2;2;
57884;PMS5003;43703;51.060;-0.086;2023-03-14T03:28:26;1;1;
57884;PMS5003;43703;51.060;-0.086;2023-03-14T03:30:51;1;1;
57884;PMS5003;43703;51.060;-0.086;2023-03-14T03:33:16;1;0;
57884;PMS5003;43703;51.060;-0.086;2023-03-14T03:35:41;2;1;
57884;PMS5003;43703;51.060;-0.086;2023-03-14T03:38:06;1;1;
57884;PMS5003;43703;51.060;-0.086;2023-03-14T03:40:31;1;1;
57884;PMS5003;43703;51.060;-0.086;2023-03-14T03:42:56;1;1;
57884;PMS5003;43703;51.060;-0.086;2023-03-14T03:45:21;1;1;
57884;PMS5003;43703;51.060;-0.086;2023-03-14T03:47:46;1;1;
57884;PMS5003;43703;51.060;-0.086;2023-03-14T03:50:11;1;1;
57884;PMS5003;43703;51.060;-0.086;2023-03-14T03:52:36;2;2;
57884;PMS5003;43703;51.060;-0.086;2023-03-14T03:55:01;1;1;
57884;PMS5003;43703;51.060;-0.086;2023-03-14T03:57:26;2;2;
57884;PMS5003;43703;51.060;-0.086;2023-03-14T03:59:52;4;4;
57884;PMS5003;43703;51.060;-0.086;2023-03-14T04:02:17;1;1;
57884;PMS5003;43703;51.060;-0.086;2023-03-14T04:04:42;1;1;
57884;PMS5003;43703;51.060;-0.086;2023-03-14T04:07:07;1;1;
57884;PMS5003;43703;51.060;-0.086;2023-03-14T04:09:37;0;0;
57884;PMS5003;43703;51.060;-0.086;2023-03-14T04:11:57;2;2;
57884;PMS5003;43703;51.060;-0.086;2023-03-14T04:14:23;2;2;
57884;PMS5003;43703;51.060;-0.086;2023-03-14T04:16:48;1;1;
57884;PMS5003;43703;51.060;-0.086;2023-03-14T04:19:13;2;2;
57884;PMS5003;43703;51.060;-0.086;2023-03-14T04:21:38;2;2;
57884;PMS5003;43703;51.060;-0.086;2023-03-14T04:24:03;2;2;
57884;PMS5003;43703;51.060;-0.086;2023-03-14T04:26:28;4;2;
57884;PMS5003;43703;51.060;-0.086;2023-03-14T04:28:54;0;0;
57884;PMS5003;43703;51.060;-0.086;2023-03-14T04:31:20;3;2;
57884;PMS5003;43703;51.060;-0.086;2023-03-14T04:33:44;4;1;
57884;PMS5003;43703;51.060;-0.086;2023-03-14T04:36:09;3;1;
57884;PMS5003;43703;51.060;-0.086;2023-03-14T04:38:34;2;1;
57884;PMS5003;43703;51.060;-0.086;2023-03-14T04:40:59;3;0;
57884;PMS5003;43703;51.060;-0.086;2023-03-14T04:43:25;2;2;
57884;PMS5003;43703;51.060;-0.086;2023-03-14T04:45:49;1;1;
57884;PMS5003;43703;51.060;-0.086;2023-03-14T04:48:14;2;1;
57884;PMS5003;43703;51.060;-0.086;2023-03-14T04:50:39;2;2;
57884;PMS5003;43703;51.060;-0.086;2023-03-14T04:53:04;1;1;
57884;PMS5003;43703;51.060;-0.086;2023-03-14T04:55:30;1;1;
57884;PMS5003;43703;51.060;-0.086;2023-03-14T04:57:54;2;2;
57884;PMS5003;43703;51.060;-0.086;2023-03-14T05:00:20;3;1;
57884;PMS5003;43703;51.060;-0.086;2023-03-14T05:02:45;1;1;
57884;PMS5003;43703;51.060;-0.086;2023-03-14T05:05:10;2;2;
57884;PMS5003;43703;51.060;-0.086;2023-03-14T05:07:35;2;2;
57884;PMS5003;43703;51.060;-0.086;2023-03-14T05:10:00;1;1;
57884;PMS5003;43703;51.060;-0.086;2023-03-14T05:12:25;4;1;
57884;PMS5003;43703;51.060;-0.086;2023-03-14T05:14:50;1;1;
57884;PMS5003;43703;51.060;-0.086;2023-03-14T05:17:15;3;3;
57884;PMS5003;43703;51.060;-0.086;2023-03-14T05:19:41;2;2;
57884;PMS5003;43703;51.060;-0.086;2023-03-14T05:22:05;4;2;
57884;PMS5003;43703;51.060;-0.086;2023-03-14T05:24:31;4;3;
57884;PMS5003;43703;51.060;-0.086;2023-03-14T05:26:56;1;1;
57884;PMS5003;43703;51.060;-0.086;2023-03-14T05:29:21;2;1;
57884;PMS5003;43703;51.060;-0.086;2023-03-14T05:31:46;1;1;
57884;PMS5003;43703;51.060;-0.086;2023-03-14T05:34:11;5;3;
57884;PMS5003;43703;51.060;-0.086;2023-03-14T05:36:36;2;2;
57884;PMS5003;43703;51.060;-0.086;2023-03-14T05:39:02;2;1;
57884;PMS5003;43703;51.060;-0.086;2023-03-14T05:41:27;1;1;
57884;PMS5003;43703;51.060;-0.086;2023-03-14T05:43:52;2;2;
57884;PMS5003;43703;51.060;-0.086;2023-03-14T05:46:17;1;1;
57884;PMS5003;43703;51.060;-0.086;2023-03-14T05:48:43;5;2;
57884;PMS5003;43703;51.060;-0.086;2023-03-14T05:51:08;2;2;
57884;PMS5003;43703;51.060;-0.086;2023-03-14T05:53:33;2;2;
57884;PMS5003;43703;51.060;-0.086;2023-03-14T05:55:58;1;1;
57884;PMS5003;43703;51.060;-0.086;2023-03-14T05:58:23;3;2;
57884;PMS5003;43703;51.060;-0.086;2023-03-14T06:00:49;1;1;
57884;PMS5003;43703;51.060;-0.086;2023-03-14T06:03:13;4;3;
57884;PMS5003;43703;51.060;-0.086;2023-03-14T06:05:38;2;1;
57884;PMS5003;43703;51.060;-0.086;2023-03-14T06:08:03;2;2;
57884;PMS5003;43703;51.060;-0.086;2023-03-14T06:10:28;3;2;
57884;PMS5003;43703;51.060;-0.086;2023-03-14T06:12:53;1;1;
57884;PMS5003;43703;51.060;-0.086;2023-03-14T06:15:19;7;3;
57884;PMS5003;43703;51.060;-0.086;2023-03-14T06:17:44;2;2;
57884;PMS5003;43703;51.060;-0.086;2023-03-14T06:20:09;3;3;
57884;PMS5003;43703;51.060;-0.086;2023-03-14T06:22:35;2;2;
57884;PMS5003;43703;51.060;-0.086;2023-03-14T06:25:00;4;4;
57884;PMS5003;43703;51.060;-0.086;2023-03-14T06:27:25;4;2;
57884;PMS5003;43703;51.060;-0.086;2023-03-14T06:29:50;2;1;
57884;PMS5003;43703;51.060;-0.086;2023-03-14T06:32:15;4;4;
57884;PMS5003;43703;51.060;-0.086;2023-03-14T06:34:41;4;3;
57884;PMS5003;43703;51.060;-0.086;2023-03-14T06:37:06;2;1;
57884;PMS5003;43703;51.060;-0.086;2023-03-14T06:39:31;4;3;
57884;PMS5003;43703;51.060;-0.086;2023-03-14T06:41:56;2;1;
57884;PMS5003;43703;51.060;-0.086;2023-03-14T06:44:21;6;3;
57884;PMS5003;43703;51.060;-0.086;2023-03-14T06:46:46;3;3;
57884;PMS5003;43703;51.060;-0.086;2023-03-14T06:49:12;1;1;
57884;PMS5003;43703;51.060;-0.086;2023-03-14T06:51:37;4;3;
57884;PMS5003;43703;51.060;-0.086;2023-03-14T06:54:02;3;3;
57884;PMS5003;43703;51.060;-0.086;2023-03-14T06:56:27;2;2;
57884;PMS5003;43703;51.060;-0.086;2023-03-14T06:58:52;2;2;
57884;PMS5003;43703;51.060;-0.086;2023-03-14T07:01:20;3;2;
57884;PMS5003;43703;51.060;-0.086;2023-03-14T07:03:43;2;2;
57884;PMS5003;43703;51.060;-0.086;2023-03-14T07:06:08;5;3;
57884;PMS5003;43703;51.060;-0.086;2023-03-14T07:08:33;2;2;
57884;PMS5003;43703;51.060;-0.086;2023-03-14T07:10:58;3;1;
57884;PMS5003;43703;51.060;-0.086;2023-03-14T07:13:23;5;3;
57884;PMS5003;43703;51.060;-0.086;2023-03-14T07:15:48;5;4;
57884;PMS5003;43703;51.060;-0.086;2023-03-14T07:18:14;8;5;
57884;PMS5003;43703;51.060;-0.086;2023-03-14T07:20:39;3;3;
57884;PMS5003;43703;51.060;-0.086;2023-03-14T07:23:04;2;2;
57884;PMS5003;43703;51.060;-0.086;2023-03-14T07:25:29;2;2;
57884;PMS5003;43703;51.060;-0.086;2023-03-14T07:27:54;5;5;
57884;PMS5003;43703;51.060;-0.086;2023-03-14T07:30:20;3;3;
57884;PMS5003;43703;51.060;-0.086;2023-03-14T07:32:45;5;2;
57884;PMS5003;43703;51.060;-0.086;2023-03-14T07:35:10;4;4;
57884;PMS5003;43703;51.060;-0.086;2023-03-14T07:37:35;5;4;
57884;PMS5003;43703;51.060;-0.086;2023-03-14T07:40:00;5;3;
57884;PMS5003;43703;51.060;-0.086;2023-03-14T07:42:26;2;2;
57884;PMS5003;43703;51.060;-0.086;2023-03-14T07:44:51;6;4;
57884;PMS5003;43703;51.060;-0.086;2023-03-14T07:47:16;2;2;
57884;PMS5003;43703;51.060;-0.086;2023-03-14T07:49:42;3;2;
57884;PMS5003;43703;51.060;-0.086;2023-03-14T07:52:07;1;1;
57884;PMS5003;43703;51.060;-0.086;2023-03-14T07:54:32;0;0;
57884;PMS5003;43703;51.060;-0.086;2023-03-14T07:56:57;3;2;
57884;PMS5003;43703;51.060;-0.086;2023-03-14T07:59:23;3;2;
57884;PMS5003;43703;51.060;-0.086;2023-03-14T08:01:49;3;3;
57884;PMS5003;43703;51.060;-0.086;2023-03-14T08:04:14;2;2;
57884;PMS5003;43703;51.060;-0.086;2023-03-14T08:06:39;2;2;
57884;PMS5003;43703;51.060;-0.086;2023-03-14T08:09:04;4;2;
57884;PMS5003;43703;51.060;-0.086;2023-03-14T08:11:29;2;2;
57884;PMS5003;43703;51.060;-0.086;2023-03-14T08:13:54;2;2;
57884;PMS5003;43703;51.060;-0.086;2023-03-14T08:16:19;1;1;
57884;PMS5003;43703;51.060;-0.086;2023-03-14T08:18:44;3;1;
57884;PMS5003;43703;51.060;-0.086;2023-03-14T08:21:09;5;4;
57884;PMS5003;43703;51.060;-0.086;2023-03-14T08:23:34;2;1;
57884;PMS5003;43703;51.060;-0.086;2023-03-14T08:25:59;2;1;
57884;PMS5003;43703;51.060;-0.086;2023-03-14T08:28:24;2;0;
57884;PMS5003;43703;51.060;-0.086;2023-03-14T08:30:49;2;2;
57884;PMS5003;43703;51.060;-0.086;2023-03-14T08:33:14;2;2;
57884;PMS5003;43703;51.060;-0.086;2023-03-14T08:35:39;3;0;
57884;PMS5003;43703;51.060;-0.086;2023-03-14T08:38:04;1;1;
57884;PMS5003;43703;51.060;-0.086;2023-03-14T08:40:29;3;2;
57884;PMS5003;43703;51.060;-0.086;2023-03-14T08:42:54;1;1;
57884;PMS5003;43703;51.060;-0.086;2023-03-14T08:45:20;2;2;
57884;PMS5003;43703;51.060;-0.086;2023-03-14T08:47:45;2;2;
57884;PMS5003;43703;51.060;-0.086;2023-03-14T08:50:10;1;1;
57884;PMS5003;43703;51.060;-0.086;2023-03-14T08:52:35;3;1;
57884;PMS5003;43703;51.060;-0.086;2023-03-14T08:55:00;4;1;
57884;PMS5003;43703;51.060;-0.086;2023-03-14T08:57:25;3;1;
57884;PMS5003;43703;51.060;-0.086;2023-03-14T08:59:50;2;2;
57884;PMS5003;43703;51.060;-0.086;2023-03-14T09:02:15;4;3;
57884;PMS5003;43703;51.060;-0.086;2023-03-14T09:04:40;1;1;
57884;PMS5003;43703;51.060;-0.086;2023-03-14T09:07:05;3;2;
57884;PMS5003;43703;51.060;-0.086;2023-03-14T09:09:31;1;1;
57884;PMS5003;43703;51.060;-0.086;2023-03-14T09:11:56;1;1;
57884;PMS5003;43703;51.060;-0.086;2023-03-14T09:14:21;3;3;
57884;PMS5003;43703;51.060;-0.086;2023-03-14T09:16:46;3;3;
57884;PMS5003;43703;51.060;-0.086;2023-03-14T09:19:11;2;2;
57884;PMS5003;43703;51.060;-0.086;2023-03-14T09:21:36;2;2;
57884;PMS5003;43703;51.060;-0.086;2023-03-14T09:24:01;4;3;
57884;PMS5003;43703;51.060;-0.086;2023-03-14T09:26:26;2;1;
57884;PMS5003;43703;51.060;-0.086;2023-03-14T09:28:51;3;2;
57884;PMS5003;43703;51.060;-0.086;2023-03-14T09:31:16;2;2;
57884;PMS5003;43703;51.060;-0.086;2023-03-14T09:33:41;1;1;
57884;PMS5003;43703;51.060;-0.086;2023-03-14T09:36:06;4;3;
57884;PMS5003;43703;51.060;-0.086;2023-03-14T09:38:31;3;2;
57884;PMS5003;43703;51.060;-0.086;2023-03-14T09:40:57;4;2;
57884;PMS5003;43703;51.060;-0.086;2023-03-14T09:43:21;1;1;
57884;PMS5003;43703;51.060;-0.086;2023-03-14T09:45:46;2;1;
57884;PMS5003;43703;51.060;-0.086;2023-03-14T09:48:14;2;2;
57884;PMS5003;43703;51.060;-0.086;2023-03-14T09:50:40;1;1;
57884;PMS5003;43703;51.060;-0.086;2023-03-14T09:53:04;2;2;
57884;PMS5003;43703;51.060;-0.086;2023-03-14T09:55:29;2;2;
57884;PMS5003;43703;51.060;-0.086;2023-03-14T09:57:55;1;1;
57884;PMS5003;43703;51.060;-0.086;2023-03-14T10:00:20;1;1;
57884;PMS5003;43703;51.060;-0.086;2023-03-14T10:02:46;5;4;
57884;PMS5003;43703;51.060;-0.086;2023-03-14T10:05:13;1;1;
57884;PMS5003;43703;51.060;-0.086;2023-03-14T10:07:34;1;1;
57884;PMS5003;43703;51.060;-0.086;2023-03-14T10:09:59;1;1;
57884;PMS5003;43703;51.060;-0.086;2023-03-14T10:14:50;1;1;
57884;PMS5003;43703;51.060;-0.086;2023-03-14T10:17:14;1;1;
57884;PMS5003;43703;51.060;-0.086;2023-03-14T10:19:43;2;2;
57884;PMS5003;43703;51.060;-0.086;2023-03-14T10:22:04;1;1;
57884;PMS5003;43703;51.060;-0.086;2023-03-14T10:24:29;0;0;
57884;PMS5003;43703;51.060;-0.086;2023-03-14T10:26:55;2;1;
57884;PMS5003;43703;51.060;-0.086;2023-03-14T10:29:24;1;1;
57884;PMS5003;43703;51.060;-0.086;2023-03-14T10:31:46;1;1;
57884;PMS5003;43703;51.060;-0.086;2023-03-14T10:34:12;0;0;
57884;PMS5003;43703;51.060;-0.086;2023-03-14T10:36:34;0;0;
57884;PMS5003;43703;51.060;-0.086;2023-03-14T10:39:15;4;1;
57884;PMS5003;43703;51.060;-0.086;2023-03-14T10:41:25;1;1;
57884;PMS5003;43703;51.060;-0.086;2023-03-14T10:43:49;1;1;
57884;PMS5003;43703;51.060;-0.086;2023-03-14T10:46:15;1;1;
57884;PMS5003;43703;51.060;-0.086;2023-03-14T10:48:39;3;3;
57884;PMS5003;43703;51.060;-0.086;2023-03-14T10:51:06;3;3;
57884;PMS5003;43703;51.060;-0.086;2023-03-14T10:53:32;2;2;
57884;PMS5003;43703;51.060;-0.086;2023-03-14T10:55:55;5;3;
57884;PMS5003;43703;51.060;-0.086;2023-03-14T10:58:20;2;2;
57884;PMS5003;43703;51.060;-0.086;2023-03-14T11:00:45;0;0;
57884;PMS5003;43703;51.060;-0.086;2023-03-14T11:03:11;3;2;
57884;PMS5003;43703;51.060;-0.086;2023-03-14T11:05:38;2;2;
57884;PMS5003;43703;51.060;-0.086;2023-03-14T11:08:07;4;3;
57884;PMS5003;43703;51.060;-0.086;2023-03-14T11:10:31;3;3;
57884;PMS5003;43703;51.060;-0.086;2023-03-14T11:12:56;3;3;
57884;PMS5003;43703;51.060;-0.086;2023-03-14T11:15:22;1;1;
57884;PMS5003;43703;51.060;-0.086;2023-03-14T11:17:50;1;1;
57884;PMS5003;43703;51.060;-0.086;2023-03-14T11:20:17;4;4;
57884;PMS5003;43703;51.060;-0.086;2023-03-14T11:22:38;4;3;
57884;PMS5003;43703;51.060;-0.086;2023-03-14T11:25:09;2;2;
57884;PMS5003;43703;51.060;-0.086;2023-03-14T11:27:32;0;0;
57884;PMS5003;43703;51.060;-0.086;2023-03-14T11:29:56;0;0;
57884;PMS5003;43703;51.060;-0.086;2023-03-14T11:32:24;3;3;
57884;PMS5003;43703;51.060;-0.086;2023-03-14T11:34:49;2;2;
57884;PMS5003;43703;51.060;-0.086;2023-03-14T11:37:14;1;1;
57884;PMS5003;43703;51.060;-0.086;2023-03-14T11:39:39;2;2;
57884;PMS5003;43703;51.060;-0.086;2023-03-14T11:42:05;1;1;
57884;PMS5003;43703;51.060;-0.086;2023-03-14T11:44:32;2;2;
57884;PMS5003;43703;51.060;-0.086;2023-03-14T11:46:57;4;2;
57884;PMS5003;43703;51.060;-0.086;2023-03-14T11:49:25;2;2;
57884;PMS5003;43703;51.060;-0.086;2023-03-14T11:51:49;3;3;
57884;PMS5003;43703;51.060;-0.086;2023-03-14T11:54:15;3;3;
57884;PMS5003;43703;51.060;-0.086;2023-03-14T11:56:41;3;3;
57884;PMS5003;43703;51.060;-0.086;2023-03-14T11:59:07;4;4;
57884;PMS5003;43703;51.060;-0.086;2023-03-14T12:01:34;3;3;
57884;PMS5003;43703;51.060;-0.086;2023-03-14T12:03:58;3;2;
57884;PMS5003;43703;51.060;-0.086;2023-03-14T12:06:24;3;3;
57884;PMS5003;43703;51.060;-0.086;2023-03-14T12:08:49;2;2;
57884;PMS5003;43703;51.060;-0.086;2023-03-14T12:11:18;3;2;
57884;PMS5003;43703;51.060;-0.086;2023-03-14T12:13:40;1;1;
57884;PMS5003;43703;51.060;-0.086;2023-03-14T12:16:25;2;1;
57884;PMS5003;43703;51.060;-0.086;2023-03-14T12:18:33;1;1;
57884;PMS5003;43703;51.060;-0.086;2023-03-14T12:20:58;0;0;
57884;PMS5003;43703;51.060;-0.086;2023-03-14T12:23:24;1;1;
57884;PMS5003;43703;51.060;-0.086;2023-03-14T12:25:54;2;2;
57884;PMS5003;43703;51.060;-0.086;2023-03-14T12:28:16;1;1;
57884;PMS5003;43703;51.060;-0.086;2023-03-14T12:30:41;1;1;
57884;PMS5003;43703;51.060;-0.086;2023-03-14T12:35:34;1;1;
57884;PMS5003;43703;51.060;-0.086;2023-03-14T12:37:58;3;1;
57884;PMS5003;43703;51.060;-0.086;2023-03-14T12:40:26;1;1;
57884;PMS5003;43703;51.060;-0.086;2023-03-14T12:42:53;2;2;
57884;PMS5003;43703;51.060;-0.086;2023-03-14T12:47:46;1;1;
57884;PMS5003;43703;51.060;-0.086;2023-03-14T12:50:13;1;1;
57884;PMS5003;43703;51.060;-0.086;2023-03-14T12:52:36;2;2;
57884;PMS5003;43703;51.060;-0.086;2023-03-14T12:55:00;1;1;
57884;PMS5003;43703;51.060;-0.086;2023-03-14T12:57:26;3;1;
57884;PMS5003;43703;51.060;-0.086;2023-03-14T12:59:51;2;1;
57884;PMS5003;43703;51.060;-0.086;2023-03-14T13:02:21;1;1;
57884;PMS5003;43703;51.060;-0.086;2023-03-14T13:04:43;4;2;
57884;PMS5003;43703;51.060;-0.086;2023-03-14T13:07:10;4;2;
57884;PMS5003;43703;51.060;-0.086;2023-03-14T13:09:36;3;3;
57884;PMS5003;43703;51.060;-0.086;2023-03-14T13:12:02;1;1;
57884;PMS5003;43703;51.060;-0.086;2023-03-14T13:14:27;2;2;
57884;PMS5003;43703;51.060;-0.086;2023-03-14T13:16:52;2;0;
57884;PMS5003;43703;51.060;-0.086;2023-03-14T13:19:18;3;1;
57884;PMS5003;43703;51.060;-0.086;2023-03-14T13:21:44;3;3;
57884;PMS5003;43703;51.060;-0.086;2023-03-14T13:26:36;1;1;
57884;PMS5003;43703;51.060;-0.086;2023-03-14T13:31:26;4;4;
57884;PMS5003;43703;51.060;-0.086;2023-03-14T13:36:21;3;2;
57884;PMS5003;43703;51.060;-0.086;2023-03-14T13:38:43;2;2;
57884;PMS5003;43703;51.060;-0.086;2023-03-14T13:41:10;2;2;
57884;PMS5003;43703;51.060;-0.086;2023-03-14T13:43:33;3;1;
57884;PMS5003;43703;51.060;-0.086;2023-03-14T13:46:01;3;2;
57884;PMS5003;43703;51.060;-0.086;2023-03-14T13:48:25;2;2;
57884;PMS5003;43703;51.060;-0.086;2023-03-14T13:50:50;2;2;
57884;PMS5003;43703;51.060;-0.086;2023-03-14T13:53:13;3;1;
57884;PMS5003;43703;51.060;-0.086;2023-03-14T13:55:38;2;2;
57884;PMS5003;43703;51.060;-0.086;2023-03-14T13:58:03;2;2;
57884;PMS5003;43703;51.060;-0.086;2023-03-14T14:00:28;1;1;
57884;PMS5003;43703;51.060;-0.086;2023-03-14T14:02:53;2;1;
57884;PMS5003;43703;51.060;-0.086;2023-03-14T14:05:18;1;1;
57884;PMS5003;43703;51.060;-0.086;2023-03-14T14:07:44;3;2;
57884;PMS5003;43703;51.060;-0.086;2023-03-14T14:10:09;1;1;
57884;PMS5003;43703;51.060;-0.086;2023-03-14T14:12:34;2;2;
57884;PMS5003;43703;51.060;-0.086;2023-03-14T14:14:59;2;1;
57884;PMS5003;43703;51.060;-0.086;2023-03-14T14:17:25;1;1;
57884;PMS5003;43703;51.060;-0.086;2023-03-14T14:19:49;1;1;
57884;PMS5003;43703;51.060;-0.086;2023-03-14T14:22:14;1;1;
57884;PMS5003;43703;51.060;-0.086;2023-03-14T14:24:41;0;0;
57884;PMS5003;43703;51.060;-0.086;2023-03-14T14:27:08;1;1;
57884;PMS5003;43703;51.060;-0.086;2023-03-14T14:29:30;0;0;
57884;PMS5003;43703;51.060;-0.086;2023-03-14T14:34:20;3;1;
57884;PMS5003;43703;51.060;-0.086;2023-03-14T14:36:45;1;1;
57884;PMS5003;43703;51.060;-0.086;2023-03-14T14:39:11;2;0;
57884;PMS5003;43703;51.060;-0.086;2023-03-14T14:41:35;2;1;
57884;PMS5003;43703;51.060;-0.086;2023-03-14T14:44:00;1;1;
57884;PMS5003;43703;51.060;-0.086;2023-03-14T14:46:26;1;1;
57884;PMS5003;43703;51.060;-0.086;2023-03-14T14:48:50;1;1;
57884;PMS5003;43703;51.060;-0.086;2023-03-14T14:53:41;3;2;
57884;PMS5003;43703;51.060;-0.086;2023-03-14T14:56:06;2;2;
57884;PMS5003;43703;51.060;-0.086;2023-03-14T14:58:33;1;1;
57884;PMS5003;43703;51.060;-0.086;2023-03-14T15:00:57;2;2;
57884;PMS5003;43703;51.060;-0.086;2023-03-14T15:03:20;1;0;
57884;PMS5003;43703;51.060;-0.086;2023-03-14T15:05:45;1;1;
57884;PMS5003;43703;51.060;-0.086;2023-03-14T15:08:10;4;1;
57884;PMS5003;43703;51.060;-0.086;2023-03-14T15:10:35;1;1;
57884;PMS5003;43703;51.060;-0.086;2023-03-14T15:13:00;0;0;
57884;PMS5003;43703;51.060;-0.086;2023-03-14T15:15:25;2;2;
57884;PMS5003;43703;51.060;-0.086;2023-03-14T15:17:50;1;1;
57884;PMS5003;43703;51.060;-0.086;2023-03-14T15:20:16;0;0;
57884;PMS5003;43703;51.060;-0.086;2023-03-14T15:22:40;0;0;
57884;PMS5003;43703;51.060;-0.086;2023-03-14T15:25:06;4;2;
57884;PMS5003;43703;51.060;-0.086;2023-03-14T15:27:31;1;1;
57884;PMS5003;43703;51.060;-0.086;2023-03-14T15:29:55;1;1;
57884;PMS5003;43703;51.060;-0.086;2023-03-14T15:32:20;0;0;
57884;PMS5003;43703;51.060;-0.086;2023-03-14T15:34:45;1;1;
57884;PMS5003;43703;51.060;-0.086;2023-03-14T15:37:11;0;0;
57884;PMS5003;43703;51.060;-0.086;2023-03-14T15:39:35;1;1;
57884;PMS5003;43703;51.060;-0.086;2023-03-14T15:42:00;1;1;
57884;PMS5003;43703;51.060;-0.086;2023-03-14T15:44:25;1;1;
57884;PMS5003;43703;51.060;-0.086;2023-03-14T15:46:51;1;1;
57884;PMS5003;43703;51.060;-0.086;2023-03-14T15:49:16;1;1;
57884;PMS5003;43703;51.060;-0.086;2023-03-14T15:51:41;2;0;
57884;PMS5003;43703;51.060;-0.086;2023-03-14T15:54:06;3;1;
57884;PMS5003;43703;51.060;-0.086;2023-03-14T15:56:31;1;1;
57884;PMS5003;43703;51.060;-0.086;2023-03-14T15:58:56;1;1;
57884;PMS5003;43703;51.060;-0.086;2023-03-14T16:01:21;1;1;
57884;PMS5003;43703;51.060;-0.086;2023-03-14T16:03:46;1;1;
57884;PMS5003;43703;51.060;-0.086;2023-03-14T16:06:11;3;2;
57884;PMS5003;43703;51.060;-0.086;2023-03-14T16:08:36;2;0;
57884;PMS5003;43703;51.060;-0.086;2023-03-14T16:11:01;2;1;
57884;PMS5003;43703;51.060;-0.086;2023-03-14T16:13:26;2;2;
57884;PMS5003;43703;51.060;-0.086;2023-03-14T16:15:53;0;0;
57884;PMS5003;43703;51.060;-0.086;2023-03-14T16:18:16;2;0;
57884;PMS5003;43703;51.060;-0.086;2023-03-14T16:20:41;0;0;
57884;PMS5003;43703;51.060;-0.086;2023-03-14T16:23:06;1;1;
57884;PMS5003;43703;51.060;-0.086;2023-03-14T16:25:31;2;2;
57884;PMS5003;43703;51.060;-0.086;2023-03-14T16:27:56;5;3;
57884;PMS5003;43703;51.060;-0.086;2023-03-14T16:30:21;3;1;
57884;PMS5003;43703;51.060;-0.086;2023-03-14T16:32:46;2;2;
57884;PMS5003;43703;51.060;-0.086;2023-03-14T16:35:11;3;2;
57884;PMS5003;43703;51.060;-0.086;2023-03-14T16:37:36;2;2;